sensor_id;sensor_type;location;lat;lon;timestamp;temperature;humidity
33139;DHT22;19501;50.948;5.316;2024-02-21T00:00:29;9.50;99.90
33139;DHT22;19501;50.948;5.316;2024-02-21T00:02:54;9.40;99.90
33139;DHT22;19501;50.948;5.316;2024-02-21T00:05:22;9.40;99.90
33139;DHT22;19501;50.948;5.316;2024-02-21T00:07:48;9.50;99.90
33139;DHT22;19501;50.948;5.316;2024-02-21T00:10:14;9.50;99.90
33139;DHT22;19501;50.948;5.316;2024-02-21T00:12:39;9.50;99.90
33139;DHT22;19501;50.948;5.316;2024-02-21T00:15:05;9.60;99.90
33139;DHT22;19501;50.948;5.316;2024-02-21T00:17:32;9.60;99.90
33139;DHT22;19501;50.948;5.316;2024-02-21T00:19:57;9.50;99.90
33139;DHT22;19501;50.948;5.316;2024-02-21T00:22:23;9.50;99.90
33139;DHT22;19501;50.948;5.316;2024-02-21T00:24:53;9.60;99.90
33139;DHT22;19501;50.948;5.316;2024-02-21T00:27:19;9.50;99.90
33139;DHT22;19501;50.948;5.316;2024-02-21T00:29:44;9.50;99.90
33139;DHT22;19501;50.948;5.316;2024-02-21T00:32:10;9.50;99.90
33139;DHT22;19501;50.948;5.316;2024-02-21T00:34:36;9.50;99.90
33139;DHT22;19501;50.948;5.316;2024-02-21T00:37:02;9.50;99.90
33139;DHT22;19501;50.948;5.316;2024-02-21T00:39:27;9.40;99.90
33139;DHT22;19501;50.948;5.316;2024-02-21T00:41:55;9.40;99.90
33139;DHT22;19501;50.948;5.316;2024-02-21T00:44:21;9.50;99.90
33139;DHT22;19501;50.948;5.316;2024-02-21T00:46:46;9.50;99.90
33139;DHT22;19501;50.948;5.316;2024-02-21T00:49:12;9.50;99.90
33139;DHT22;19501;50.948;5.316;2024-02-21T00:51:38;9.40;99.90
33139;DHT22;19501;50.948;5.316;2024-02-21T00:54:03;9.50;99.90
33139;DHT22;19501;50.948;5.316;2024-02-21T00:56:29;9.60;99.90
33139;DHT22;19501;50.948;5.316;2024-02-21T00:58:56;9.70;99.90
33139;DHT22;19501;50.948;5.316;2024-02-21T01:01:25;9.60;99.90
33139;DHT22;19501;50.948;5.316;2024-02-21T01:03:51;9.70;99.90
33139;DHT22;19501;50.948;5.316;2024-02-21T01:06:19;9.70;99.90
33139;DHT22;19501;50.948;5.316;2024-02-21T01:08:48;9.60;99.90
33139;DHT22;19501;50.948;5.316;2024-02-21T01:11:14;9.60;99.90
33139;DHT22;19501;50.948;5.316;2024-02-21T01:13:40;9.50;99.90
33139;DHT22;19501;50.948;5.316;2024-02-21T01:16:09;9.40;99.90
33139;DHT22;19501;50.948;5.316;2024-02-21T01:18:37;9.40;99.90
33139;DHT22;19501;50.948;5.316;2024-02-21T01:21:04;9.40;99.90
33139;DHT22;19501;50.948;5.316;2024-02-21T01:23:33;9.40;99.90
33139;DHT22;19501;50.948;5.316;2024-02-21T01:25:59;9.50;99.90
33139;DHT22;19501;50.948;5.316;2024-02-21T01:28:25;9.60;99.90
33139;DHT22;19501;50.948;5.316;2024-02-21T01:30:50;9.70;99.90
33139;DHT22;19501;50.948;5.316;2024-02-21T01:33:17;9.60;99.90
33139;DHT22;19501;50.948;5.316;2024-02-21T01:35:42;9.50;99.90
33139;DHT22;19501;50.948;5.316;2024-02-21T01:38:08;9.60;99.90
33139;DHT22;19501;50.948;5.316;2024-02-21T01:40:36;9.50;99.90
33139;DHT22;19501;50.948;5.316;2024-02-21T01:43:03;9.40;99.90
33139;DHT22;19501;50.948;5.316;2024-02-21T01:45:31;9.40;99.90
33139;DHT22;19501;50.948;5.316;2024-02-21T01:47:57;9.40;99.90
33139;DHT22;19501;50.948;5.316;2024-02-21T01:50:23;9.50;99.90
33139;DHT22;19501;50.948;5.316;2024-02-21T01:52:50;9.40;99.90
33139;DHT22;19501;50.948;5.316;2024-02-21T01:55:16;9.30;99.90
33139;DHT22;19501;50.948;5.316;2024-02-21T01:57:43;9.40;99.90
33139;DHT22;19501;50.948;5.316;2024-02-21T02:00:12;9.40;99.90
33139;DHT22;19501;50.948;5.316;2024-02-21T02:02:39;9.40;99.90
33139;DHT22;19501;50.948;5.316;2024-02-21T02:05:07;9.50;99.90
33139;DHT22;19501;50.948;5.316;2024-02-21T02:07:33;9.60;99.90
33139;DHT22;19501;50.948;5.316;2024-02-21T02:09:58;9.60;99.90
33139;DHT22;19501;50.948;5.316;2024-02-21T02:12:24;9.60;99.90
33139;DHT22;19501;50.948;5.316;2024-02-21T02:15:00;9.60;99.90
33139;DHT22;19501;50.948;5.316;2024-02-21T02:17:26;9.60;99.90
33139;DHT22;19501;50.948;5.316;2024-02-21T02:19:52;9.50;99.90
33139;DHT22;19501;50.948;5.316;2024-02-21T02:22:22;9.50;99.90
33139;DHT22;19501;50.948;5.316;2024-02-21T02:24:51;9.60;99.90
33139;DHT22;19501;50.948;5.316;2024-02-21T02:27:19;9.60;99.90
33139;DHT22;19501;50.948;5.316;2024-02-21T02:29:47;9.60;99.90
33139;DHT22;19501;50.948;5.316;2024-02-21T02:32:12;9.60;99.90
33139;DHT22;19501;50.948;5.316;2024-02-21T02:34:38;9.50;99.90
33139;DHT22;19501;50.948;5.316;2024-02-21T02:37:04;9.40;99.90
33139;DHT22;19501;50.948;5.316;2024-02-21T02:39:29;9.40;99.90
33139;DHT22;19501;50.948;5.316;2024-02-21T02:41:55;9.40;99.90
33139;DHT22;19501;50.948;5.316;2024-02-21T02:44:20;9.40;99.90
33139;DHT22;19501;50.948;5.316;2024-02-21T02:46:46;9.60;99.90
33139;DHT22;19501;50.948;5.316;2024-02-21T02:49:12;9.50;99.90
33139;DHT22;19501;50.948;5.316;2024-02-21T02:51:41;9.50;99.90
33139;DHT22;19501;50.948;5.316;2024-02-21T02:54:07;9.50;99.90
33139;DHT22;19501;50.948;5.316;2024-02-21T02:56:33;9.40;99.90
33139;DHT22;19501;50.948;5.316;2024-02-21T02:58:59;9.40;99.90
33139;DHT22;19501;50.948;5.316;2024-02-21T03:01:27;9.40;99.90
33139;DHT22;19501;50.948;5.316;2024-02-21T03:03:53;9.40;99.90
33139;DHT22;19501;50.948;5.316;2024-02-21T03:06:19;9.30;99.90
33139;DHT22;19501;50.948;5.316;2024-02-21T03:08:44;9.20;99.90
33139;DHT22;19501;50.948;5.316;2024-02-21T03:11:10;9.20;99.90
33139;DHT22;19501;50.948;5.316;2024-02-21T03:13:36;9.20;99.90
33139;DHT22;19501;50.948;5.316;2024-02-21T03:16:02;9.20;99.90
33139;DHT22;19501;50.948;5.316;2024-02-21T03:18:28;9.20;99.90
33139;DHT22;19501;50.948;5.316;2024-02-21T03:20:53;9.40;99.90
33139;DHT22;19501;50.948;5.316;2024-02-21T03:23:19;9.30;99.90
33139;DHT22;19501;50.948;5.316;2024-02-21T03:25:45;9.20;99.90
33139;DHT22;19501;50.948;5.316;2024-02-21T03:28:10;9.10;99.90
33139;DHT22;19501;50.948;5.316;2024-02-21T03:30:36;9.10;99.90
33139;DHT22;19501;50.948;5.316;2024-02-21T03:33:04;9.00;99.90
33139;DHT22;19501;50.948;5.316;2024-02-21T03:35:30;9.10;99.90
33139;DHT22;19501;50.948;5.316;2024-02-21T03:37:55;9.20;99.90
33139;DHT22;19501;50.948;5.316;2024-02-21T03:40:23;9.00;99.90
33139;DHT22;19501;50.948;5.316;2024-02-21T03:42:49;9.00;99.90
33139;DHT22;19501;50.948;5.316;2024-02-21T03:45:15;9.00;99.90
33139;DHT22;19501;50.948;5.316;2024-02-21T03:47:41;9.00;99.90
33139;DHT22;19501;50.948;5.316;2024-02-21T03:50:07;9.10;99.90
33139;DHT22;19501;50.948;5.316;2024-02-21T03:52:32;9.10;99.90
33139;DHT22;19501;50.948;5.316;2024-02-21T03:54:58;9.00;99.90
33139;DHT22;19501;50.948;5.316;2024-02-21T03:57:24;9.00;99.90
33139;DHT22;19501;50.948;5.316;2024-02-21T03:59:52;9.00;99.90
33139;DHT22;19501;50.948;5.316;2024-02-21T04:02:18;9.10;99.90
33139;DHT22;19501;50.948;5.316;2024-02-21T04:04:44;9.10;99.90
33139;DHT22;19501;50.948;5.316;2024-02-21T04:07:16;9.20;99.90
33139;DHT22;19501;50.948;5.316;2024-02-21T04:09:42;9.30;99.90
33139;DHT22;19501;50.948;5.316;2024-02-21T04:12:08;9.20;99.90
33139;DHT22;19501;50.948;5.316;2024-02-21T04:14:35;9.10;99.90
33139;DHT22;19501;50.948;5.316;2024-02-21T04:17:02;9.00;99.90
33139;DHT22;19501;50.948;5.316;2024-02-21T04:19:28;8.90;99.90
33139;DHT22;19501;50.948;5.316;2024-02-21T04:21:54;9.00;99.90
33139;DHT22;19501;50.948;5.316;2024-02-21T04:24:19;9.00;99.90
33139;DHT22;19501;50.948;5.316;2024-02-21T04:26:45;9.00;99.90
33139;DHT22;19501;50.948;5.316;2024-02-21T04:29:11;9.20;99.90
33139;DHT22;19501;50.948;5.316;2024-02-21T04:31:36;9.10;99.90
33139;DHT22;19501;50.948;5.316;2024-02-21T04:34:02;9.10;99.90
33139;DHT22;19501;50.948;5.316;2024-02-21T04:36:28;9.00;99.90
33139;DHT22;19501;50.948;5.316;2024-02-21T04:38:53;9.10;99.90
33139;DHT22;19501;50.948;5.316;2024-02-21T04:41:19;9.00;99.90
33139;DHT22;19501;50.948;5.316;2024-02-21T04:43:48;9.10;99.90
33139;DHT22;19501;50.948;5.316;2024-02-21T04:46:14;9.10;99.90
33139;DHT22;19501;50.948;5.316;2024-02-21T04:48:41;9.10;99.90
33139;DHT22;19501;50.948;5.316;2024-02-21T04:51:06;9.20;99.90
33139;DHT22;19501;50.948;5.316;2024-02-21T04:53:32;9.20;99.90
33139;DHT22;19501;50.948;5.316;2024-02-21T04:55:57;9.10;99.90
33139;DHT22;19501;50.948;5.316;2024-02-21T04:58:23;9.00;99.90
33139;DHT22;19501;50.948;5.316;2024-02-21T05:00:49;9.00;99.90
33139;DHT22;19501;50.948;5.316;2024-02-21T05:03:17;9.00;99.90
33139;DHT22;19501;50.948;5.316;2024-02-21T05:05:42;9.10;99.90
33139;DHT22;19501;50.948;5.316;2024-02-21T05:08:09;9.10;99.90
33139;DHT22;19501;50.948;5.316;2024-02-21T05:10:35;9.00;99.90
33139;DHT22;19501;50.948;5.316;2024-02-21T05:13:03;8.90;99.90
33139;DHT22;19501;50.948;5.316;2024-02-21T05:15:29;9.00;99.90
33139;DHT22;19501;50.948;5.316;2024-02-21T05:17:55;9.00;99.90
33139;DHT22;19501;50.948;5.316;2024-02-21T05:20:20;9.10;99.90
33139;DHT22;19501;50.948;5.316;2024-02-21T05:22:46;9.00;99.90
33139;DHT22;19501;50.948;5.316;2024-02-21T05:25:12;8.90;99.90
33139;DHT22;19501;50.948;5.316;2024-02-21T05:27:37;8.90;99.90
33139;DHT22;19501;50.948;5.316;2024-02-21T05:30:04;9.00;99.90
33139;DHT22;19501;50.948;5.316;2024-02-21T05:32:31;9.00;99.90
33139;DHT22;19501;50.948;5.316;2024-02-21T05:34:59;9.00;99.90
33139;DHT22;19501;50.948;5.316;2024-02-21T05:37:25;9.00;99.90
33139;DHT22;19501;50.948;5.316;2024-02-21T05:39:50;9.00;99.90
33139;DHT22;19501;50.948;5.316;2024-02-21T05:42:16;9.00;99.90
33139;DHT22;19501;50.948;5.316;2024-02-21T05:44:42;9.10;99.90
33139;DHT22;19501;50.948;5.316;2024-02-21T05:47:07;9.00;99.90
33139;DHT22;19501;50.948;5.316;2024-02-21T05:49:36;9.10;99.90
33139;DHT22;19501;50.948;5.316;2024-02-21T05:52:02;9.00;99.90
33139;DHT22;19501;50.948;5.316;2024-02-21T05:54:27;8.90;99.90
33139;DHT22;19501;50.948;5.316;2024-02-21T05:56:53;9.00;99.90
33139;DHT22;19501;50.948;5.316;2024-02-21T05:59:18;8.90;99.90
33139;DHT22;19501;50.948;5.316;2024-02-21T06:01:44;8.90;99.90
33139;DHT22;19501;50.948;5.316;2024-02-21T06:04:12;8.90;99.90
33139;DHT22;19501;50.948;5.316;2024-02-21T06:06:37;8.80;99.90
33139;DHT22;19501;50.948;5.316;2024-02-21T06:09:03;8.90;99.90
33139;DHT22;19501;50.948;5.316;2024-02-21T06:11:31;8.90;99.90
33139;DHT22;19501;50.948;5.316;2024-02-21T06:13:57;8.90;99.90
33139;DHT22;19501;50.948;5.316;2024-02-21T06:16:22;9.00;99.90
33139;DHT22;19501;50.948;5.316;2024-02-21T06:18:48;8.90;99.90
33139;DHT22;19501;50.948;5.316;2024-02-21T06:21:13;8.80;99.90
33139;DHT22;19501;50.948;5.316;2024-02-21T06:23:39;8.80;99.90
33139;DHT22;19501;50.948;5.316;2024-02-21T06:26:05;8.70;99.90
33139;DHT22;19501;50.948;5.316;2024-02-21T06:28:30;8.70;99.90
33139;DHT22;19501;50.948;5.316;2024-02-21T06:30:56;8.70;99.90
33139;DHT22;19501;50.948;5.316;2024-02-21T06:33:21;8.70;99.90
33139;DHT22;19501;50.948;5.316;2024-02-21T06:35:50;8.80;99.90
33139;DHT22;19501;50.948;5.316;2024-02-21T06:38:18;8.70;99.90
33139;DHT22;19501;50.948;5.316;2024-02-21T06:40:44;8.70;99.90
33139;DHT22;19501;50.948;5.316;2024-02-21T06:43:16;8.70;99.90
33139;DHT22;19501;50.948;5.316;2024-02-21T06:45:41;8.80;99.90
33139;DHT22;19501;50.948;5.316;2024-02-21T06:48:07;8.70;99.90
33139;DHT22;19501;50.948;5.316;2024-02-21T06:50:33;8.70;99.90
33139;DHT22;19501;50.948;5.316;2024-02-21T06:52:59;8.70;99.90
33139;DHT22;19501;50.948;5.316;2024-02-21T06:55:24;8.60;99.90
33139;DHT22;19501;50.948;5.316;2024-02-21T06:57:50;8.50;99.90
33139;DHT22;19501;50.948;5.316;2024-02-21T07:00:16;8.50;99.90
33139;DHT22;19501;50.948;5.316;2024-02-21T07:02:42;8.50;99.90
33139;DHT22;19501;50.948;5.316;2024-02-21T07:05:08;8.40;99.90
33139;DHT22;19501;50.948;5.316;2024-02-21T07:07:33;8.30;99.90
33139;DHT22;19501;50.948;5.316;2024-02-21T07:10:00;8.30;99.90
33139;DHT22;19501;50.948;5.316;2024-02-21T07:12:26;8.20;99.90
33139;DHT22;19501;50.948;5.316;2024-02-21T07:14:52;8.30;99.90
33139;DHT22;19501;50.948;5.316;2024-02-21T07:17:17;8.30;99.90
33139;DHT22;19501;50.948;5.316;2024-02-21T07:19:43;8.20;99.90
33139;DHT22;19501;50.948;5.316;2024-02-21T07:22:08;8.30;99.90
33139;DHT22;19501;50.948;5.316;2024-02-21T07:24:34;8.30;99.90
33139;DHT22;19501;50.948;5.316;2024-02-21T07:27:00;8.40;99.90
33139;DHT22;19501;50.948;5.316;2024-02-21T07:29:30;8.30;99.90
33139;DHT22;19501;50.948;5.316;2024-02-21T07:31:56;8.20;99.90
33139;DHT22;19501;50.948;5.316;2024-02-21T07:34:24;8.20;99.90
33139;DHT22;19501;50.948;5.316;2024-02-21T07:36:49;8.10;99.90
33139;DHT22;19501;50.948;5.316;2024-02-21T07:39:15;8.10;99.90
33139;DHT22;19501;50.948;5.316;2024-02-21T07:41:41;8.10;99.90
33139;DHT22;19501;50.948;5.316;2024-02-21T07:44:10;8.10;99.90
33139;DHT22;19501;50.948;5.316;2024-02-21T07:46:36;8.10;99.90
33139;DHT22;19501;50.948;5.316;2024-02-21T07:49:01;8.20;99.90
33139;DHT22;19501;50.948;5.316;2024-02-21T07:51:28;8.20;99.90
33139;DHT22;19501;50.948;5.316;2024-02-21T07:53:53;8.30;99.90
33139;DHT22;19501;50.948;5.316;2024-02-21T07:56:19;8.30;99.90
33139;DHT22;19501;50.948;5.316;2024-02-21T07:58:45;8.30;99.90
33139;DHT22;19501;50.948;5.316;2024-02-21T08:01:11;8.30;99.90
33139;DHT22;19501;50.948;5.316;2024-02-21T08:03:36;8.30;99.90
33139;DHT22;19501;50.948;5.316;2024-02-21T08:06:03;8.40;99.90
33139;DHT22;19501;50.948;5.316;2024-02-21T08:08:29;8.40;99.90
33139;DHT22;19501;50.948;5.316;2024-02-21T08:10:55;8.40;99.90
33139;DHT22;19501;50.948;5.316;2024-02-21T08:13:21;8.50;99.90
33139;DHT22;19501;50.948;5.316;2024-02-21T08:15:46;8.50;99.90
33139;DHT22;19501;50.948;5.316;2024-02-21T08:18:12;8.50;99.90
33139;DHT22;19501;50.948;5.316;2024-02-21T08:20:40;8.60;99.90
33139;DHT22;19501;50.948;5.316;2024-02-21T08:23:06;8.60;99.90
33139;DHT22;19501;50.948;5.316;2024-02-21T08:25:31;8.60;99.90
33139;DHT22;19501;50.948;5.316;2024-02-21T08:28:00;8.70;99.90
33139;DHT22;19501;50.948;5.316;2024-02-21T08:30:25;8.80;99.90
33139;DHT22;19501;50.948;5.316;2024-02-21T08:32:51;8.80;99.90
33139;DHT22;19501;50.948;5.316;2024-02-21T08:35:17;8.90;99.90
33139;DHT22;19501;50.948;5.316;2024-02-21T08:37:47;9.00;99.90
33139;DHT22;19501;50.948;5.316;2024-02-21T08:40:14;9.00;99.90
33139;DHT22;19501;50.948;5.316;2024-02-21T08:42:43;9.10;99.90
33139;DHT22;19501;50.948;5.316;2024-02-21T08:45:09;9.20;99.90
33139;DHT22;19501;50.948;5.316;2024-02-21T08:47:35;9.30;99.90
33139;DHT22;19501;50.948;5.316;2024-02-21T08:50:02;9.30;99.90
33139;DHT22;19501;50.948;5.316;2024-02-21T08:52:28;9.30;99.90
33139;DHT22;19501;50.948;5.316;2024-02-21T08:54:53;9.50;99.90
33139;DHT22;19501;50.948;5.316;2024-02-21T08:57:20;9.40;99.90
33139;DHT22;19501;50.948;5.316;2024-02-21T08:59:46;9.30;99.90
33139;DHT22;19501;50.948;5.316;2024-02-21T09:02:13;9.30;99.90
33139;DHT22;19501;50.948;5.316;2024-02-21T09:04:38;9.30;99.90
33139;DHT22;19501;50.948;5.316;2024-02-21T09:07:04;9.30;99.90
33139;DHT22;19501;50.948;5.316;2024-02-21T09:09:29;9.30;99.90
33139;DHT22;19501;50.948;5.316;2024-02-21T09:11:55;9.30;99.90
33139;DHT22;19501;50.948;5.316;2024-02-21T09:14:21;9.40;99.90
33139;DHT22;19501;50.948;5.316;2024-02-21T09:16:47;9.40;99.90
33139;DHT22;19501;50.948;5.316;2024-02-21T09:19:13;9.50;99.90
33139;DHT22;19501;50.948;5.316;2024-02-21T09:21:39;9.50;99.90
33139;DHT22;19501;50.948;5.316;2024-02-21T09:24:05;9.60;99.90
33139;DHT22;19501;50.948;5.316;2024-02-21T09:26:31;9.50;99.90
33139;DHT22;19501;50.948;5.316;2024-02-21T09:28:57;9.50;99.90
33139;DHT22;19501;50.948;5.316;2024-02-21T09:31:23;9.60;99.90
33139;DHT22;19501;50.948;5.316;2024-02-21T09:33:48;9.50;99.90
33139;DHT22;19501;50.948;5.316;2024-02-21T09:36:16;9.50;99.90
33139;DHT22;19501;50.948;5.316;2024-02-21T09:38:42;9.50;99.90
33139;DHT22;19501;50.948;5.316;2024-02-21T09:41:18;9.50;99.90
33139;DHT22;19501;50.948;5.316;2024-02-21T09:43:45;9.50;99.90
33139;DHT22;19501;50.948;5.316;2024-02-21T09:46:18;9.60;99.90
33139;DHT22;19501;50.948;5.316;2024-02-21T09:51:27;9.80;99.90
33139;DHT22;19501;50.948;5.316;2024-02-21T09:53:54;9.70;99.90
33139;DHT22;19501;50.948;5.316;2024-02-21T09:56:21;9.80;99.90
33139;DHT22;19501;50.948;5.316;2024-02-21T09:58:47;9.70;99.90
33139;DHT22;19501;50.948;5.316;2024-02-21T10:01:13;9.80;99.90
33139;DHT22;19501;50.948;5.316;2024-02-21T10:03:41;9.90;99.90
33139;DHT22;19501;50.948;5.316;2024-02-21T10:06:06;10.00;99.90
33139;DHT22;19501;50.948;5.316;2024-02-21T10:08:32;9.90;99.90
33139;DHT22;19501;50.948;5.316;2024-02-21T10:10:57;10.00;99.90
33139;DHT22;19501;50.948;5.316;2024-02-21T10:13:28;10.00;99.90
33139;DHT22;19501;50.948;5.316;2024-02-21T10:16:04;10.10;99.90
33139;DHT22;19501;50.948;5.316;2024-02-21T10:18:30;10.20;99.90
33139;DHT22;19501;50.948;5.316;2024-02-21T10:21:07;10.30;99.90
33139;DHT22;19501;50.948;5.316;2024-02-21T10:23:46;10.40;99.90
33139;DHT22;19501;50.948;5.316;2024-02-21T10:26:13;10.40;99.90
33139;DHT22;19501;50.948;5.316;2024-02-21T10:28:39;10.50;99.90
33139;DHT22;19501;50.948;5.316;2024-02-21T10:31:11;10.50;99.90
33139;DHT22;19501;50.948;5.316;2024-02-21T10:33:37;10.70;99.90
33139;DHT22;19501;50.948;5.316;2024-02-21T10:36:10;10.80;99.90
33139;DHT22;19501;50.948;5.316;2024-02-21T10:38:39;10.80;99.90
33139;DHT22;19501;50.948;5.316;2024-02-21T10:41:05;10.70;99.90
33139;DHT22;19501;50.948;5.316;2024-02-21T10:43:38;10.70;99.90
33139;DHT22;19501;50.948;5.316;2024-02-21T10:46:08;10.90;99.90
33139;DHT22;19501;50.948;5.316;2024-02-21T10:48:45;10.90;99.90
33139;DHT22;19501;50.948;5.316;2024-02-21T10:51:17;10.90;99.90
33139;DHT22;19501;50.948;5.316;2024-02-21T10:56:39;10.70;99.90
33139;DHT22;19501;50.948;5.316;2024-02-21T10:59:09;10.70;99.90
33139;DHT22;19501;50.948;5.316;2024-02-21T11:01:34;10.70;99.90
33139;DHT22;19501;50.948;5.316;2024-02-21T11:04:08;10.90;99.90
33139;DHT22;19501;50.948;5.316;2024-02-21T11:06:38;10.80;99.90
33139;DHT22;19501;50.948;5.316;2024-02-21T11:09:06;10.80;99.90
33139;DHT22;19501;50.948;5.316;2024-02-21T11:11:40;10.90;99.90
33139;DHT22;19501;50.948;5.316;2024-02-21T11:14:19;10.90;99.90
33139;DHT22;19501;50.948;5.316;2024-02-21T11:16:45;11.10;99.90
33139;DHT22;19501;50.948;5.316;2024-02-21T11:19:28;11.20;99.90
33139;DHT22;19501;50.948;5.316;2024-02-21T11:21:55;11.40;99.90
33139;DHT22;19501;50.948;5.316;2024-02-21T11:24:34;11.30;99.90
33139;DHT22;19501;50.948;5.316;2024-02-21T11:27:15;11.50;99.90
33139;DHT22;19501;50.948;5.316;2024-02-21T12:26:38;11.50;99.90
33139;DHT22;19501;50.948;5.316;2024-02-21T12:29:03;11.40;99.90
33139;DHT22;19501;50.948;5.316;2024-02-21T12:31:29;11.60;99.90
33139;DHT22;19501;50.948;5.316;2024-02-21T12:33:55;11.50;99.90
33139;DHT22;19501;50.948;5.316;2024-02-21T12:36:20;11.40;99.90
33139;DHT22;19501;50.948;5.316;2024-02-21T12:38:46;11.40;99.90
33139;DHT22;19501;50.948;5.316;2024-02-21T12:41:16;11.40;99.90
33139;DHT22;19501;50.948;5.316;2024-02-21T12:43:41;11.30;99.90
33139;DHT22;19501;50.948;5.316;2024-02-21T12:46:08;11.30;99.90
33139;DHT22;19501;50.948;5.316;2024-02-21T12:48:33;11.20;99.90
33139;DHT22;19501;50.948;5.316;2024-02-21T12:50:59;11.10;99.90
33139;DHT22;19501;50.948;5.316;2024-02-21T12:53:25;11.20;99.90
33139;DHT22;19501;50.948;5.316;2024-02-21T12:55:51;11.10;99.90
33139;DHT22;19501;50.948;5.316;2024-02-21T12:58:17;11.10;99.90
33139;DHT22;19501;50.948;5.316;2024-02-21T13:00:42;11.10;99.90
33139;DHT22;19501;50.948;5.316;2024-02-21T13:03:10;11.10;99.90
33139;DHT22;19501;50.948;5.316;2024-02-21T13:05:39;11.10;99.90
33139;DHT22;19501;50.948;5.316;2024-02-21T13:08:08;11.20;99.90
33139;DHT22;19501;50.948;5.316;2024-02-21T13:10:37;11.30;99.90
33139;DHT22;19501;50.948;5.316;2024-02-21T13:13:03;11.30;99.90
33139;DHT22;19501;50.948;5.316;2024-02-21T13:15:29;11.20;99.90
33139;DHT22;19501;50.948;5.316;2024-02-21T13:17:56;11.20;99.90
33139;DHT22;19501;50.948;5.316;2024-02-21T13:20:22;11.40;99.90
33139;DHT22;19501;50.948;5.316;2024-02-21T13:22:48;11.30;99.90
33139;DHT22;19501;50.948;5.316;2024-02-21T13:25:14;11.30;99.90
33139;DHT22;19501;50.948;5.316;2024-02-21T13:27:49;11.30;99.90
33139;DHT22;19501;50.948;5.316;2024-02-21T13:30:15;11.30;99.90
33139;DHT22;19501;50.948;5.316;2024-02-21T13:32:45;11.40;99.90
33139;DHT22;19501;50.948;5.316;2024-02-21T13:35:12;11.40;99.90
33139;DHT22;19501;50.948;5.316;2024-02-21T13:37:38;11.60;99.90
33139;DHT22;19501;50.948;5.316;2024-02-21T13:40:05;11.40;99.90
33139;DHT22;19501;50.948;5.316;2024-02-21T13:42:32;11.50;99.90
33139;DHT22;19501;50.948;5.316;2024-02-21T13:44:58;11.60;99.90
33139;DHT22;19501;50.948;5.316;2024-02-21T13:47:24;11.50;99.90
33139;DHT22;19501;50.948;5.316;2024-02-21T13:49:49;11.50;99.90
33139;DHT22;19501;50.948;5.316;2024-02-21T13:52:15;11.50;99.90
33139;DHT22;19501;50.948;5.316;2024-02-21T13:54:40;11.60;99.90
33139;DHT22;19501;50.948;5.316;2024-02-21T13:57:07;11.50;99.90
33139;DHT22;19501;50.948;5.316;2024-02-21T13:59:33;11.70;99.90
33139;DHT22;19501;50.948;5.316;2024-02-21T14:01:59;11.50;99.90
33139;DHT22;19501;50.948;5.316;2024-02-21T14:04:25;11.50;99.90
33139;DHT22;19501;50.948;5.316;2024-02-21T14:06:50;11.40;99.90
33139;DHT22;19501;50.948;5.316;2024-02-21T14:09:18;11.30;99.90
33139;DHT22;19501;50.948;5.316;2024-02-21T14:11:44;11.30;99.90
33139;DHT22;19501;50.948;5.316;2024-02-21T14:14:10;11.20;99.90
33139;DHT22;19501;50.948;5.316;2024-02-21T14:16:36;11.20;99.90
33139;DHT22;19501;50.948;5.316;2024-02-21T14:19:02;11.20;99.90
33139;DHT22;19501;50.948;5.316;2024-02-21T14:21:27;11.30;99.90
33139;DHT22;19501;50.948;5.316;2024-02-21T14:23:54;11.40;99.90
33139;DHT22;19501;50.948;5.316;2024-02-21T14:26:22;11.20;99.90
33139;DHT22;19501;50.948;5.316;2024-02-21T14:28:47;11.20;99.90
33139;DHT22;19501;50.948;5.316;2024-02-21T14:31:13;11.20;99.90
33139;DHT22;19501;50.948;5.316;2024-02-21T14:33:41;11.20;99.90
33139;DHT22;19501;50.948;5.316;2024-02-21T14:36:07;11.10;99.90
33139;DHT22;19501;50.948;5.316;2024-02-21T14:38:33;11.10;99.90
33139;DHT22;19501;50.948;5.316;2024-02-21T14:40:59;11.00;99.90
33139;DHT22;19501;50.948;5.316;2024-02-21T14:43:26;11.00;99.90
33139;DHT22;19501;50.948;5.316;2024-02-21T14:45:53;10.90;99.90
33139;DHT22;19501;50.948;5.316;2024-02-21T14:48:21;10.80;99.90
33139;DHT22;19501;50.948;5.316;2024-02-21T14:50:51;10.80;99.90
33139;DHT22;19501;50.948;5.316;2024-02-21T14:53:17;10.80;99.90
33139;DHT22;19501;50.948;5.316;2024-02-21T14:55:43;10.70;99.90
33139;DHT22;19501;50.948;5.316;2024-02-21T14:58:09;10.60;99.90
33139;DHT22;19501;50.948;5.316;2024-02-21T15:00:35;10.60;99.90
33139;DHT22;19501;50.948;5.316;2024-02-21T15:03:01;10.60;99.90
33139;DHT22;19501;50.948;5.316;2024-02-21T15:05:28;10.50;99.90
33139;DHT22;19501;50.948;5.316;2024-02-21T15:07:56;10.40;99.90
33139;DHT22;19501;50.948;5.316;2024-02-21T15:10:23;10.30;99.90
33139;DHT22;19501;50.948;5.316;2024-02-21T15:12:48;10.20;99.90
33139;DHT22;19501;50.948;5.316;2024-02-21T15:15:14;10.10;99.90
33139;DHT22;19501;50.948;5.316;2024-02-21T15:17:40;10.00;99.90
33139;DHT22;19501;50.948;5.316;2024-02-21T15:20:06;9.90;99.90
33139;DHT22;19501;50.948;5.316;2024-02-21T15:22:35;9.90;99.90
33139;DHT22;19501;50.948;5.316;2024-02-21T15:25:04;9.80;99.90
33139;DHT22;19501;50.948;5.316;2024-02-21T15:27:30;9.70;99.90
33139;DHT22;19501;50.948;5.316;2024-02-21T15:29:56;9.70;99.90
33139;DHT22;19501;50.948;5.316;2024-02-21T15:32:23;9.70;99.90
33139;DHT22;19501;50.948;5.316;2024-02-21T15:34:48;9.60;99.90
33139;DHT22;19501;50.948;5.316;2024-02-21T15:37:14;9.60;99.90
33139;DHT22;19501;50.948;5.316;2024-02-21T15:39:42;9.50;99.90
33139;DHT22;19501;50.948;5.316;2024-02-21T15:42:11;9.40;99.90
33139;DHT22;19501;50.948;5.316;2024-02-21T15:44:37;9.40;99.90
33139;DHT22;19501;50.948;5.316;2024-02-21T15:47:03;9.40;99.90
33139;DHT22;19501;50.948;5.316;2024-02-21T15:49:28;9.40;99.90
33139;DHT22;19501;50.948;5.316;2024-02-21T15:51:54;9.30;99.90
33139;DHT22;19501;50.948;5.316;2024-02-21T15:54:20;9.30;99.90
33139;DHT22;19501;50.948;5.316;2024-02-21T15:56:46;9.30;99.90
33139;DHT22;19501;50.948;5.316;2024-02-21T15:59:12;9.30;99.90
33139;DHT22;19501;50.948;5.316;2024-02-21T16:01:38;9.30;99.90
33139;DHT22;19501;50.948;5.316;2024-02-21T16:04:05;9.20;99.90
33139;DHT22;19501;50.948;5.316;2024-02-21T16:06:31;9.10;99.90
33139;DHT22;19501;50.948;5.316;2024-02-21T16:08:57;9.10;99.90
33139;DHT22;19501;50.948;5.316;2024-02-21T16:11:23;9.10;99.90
33139;DHT22;19501;50.948;5.316;2024-02-21T16:13:49;9.00;99.90
33139;DHT22;19501;50.948;5.316;2024-02-21T16:16:17;9.00;99.90
33139;DHT22;19501;50.948;5.316;2024-02-21T16:18:44;9.00;99.90
33139;DHT22;19501;50.948;5.316;2024-02-21T16:21:12;9.00;99.90
33139;DHT22;19501;50.948;5.316;2024-02-21T16:23:39;8.90;99.90
33139;DHT22;19501;50.948;5.316;2024-02-21T16:26:05;8.90;99.90
33139;DHT22;19501;50.948;5.316;2024-02-21T16:28:30;8.90;99.90
33139;DHT22;19501;50.948;5.316;2024-02-21T16:30:56;8.90;99.90
33139;DHT22;19501;50.948;5.316;2024-02-21T16:33:23;8.90;99.90
33139;DHT22;19501;50.948;5.316;2024-02-21T16:35:51;8.90;99.90
33139;DHT22;19501;50.948;5.316;2024-02-21T16:38:17;8.80;99.90
33139;DHT22;19501;50.948;5.316;2024-02-21T16:40:44;8.80;99.90